sensor_id;sensor_type;location;lat;lon;timestamp;P1;durP1;ratioP1;P2;durP2;ratioP2
75044;SDS011;63614;56.026;35.960;2023-05-16T00:01:13;10.43;;;3.83;;
75044;SDS011;63614;56.026;35.960;2023-05-16T00:03:39;6.07;;;3.33;;
75044;SDS011;63614;56.026;35.960;2023-05-16T00:08:34;9.40;;;4.32;;
75044;SDS011;63614;56.026;35.960;2023-05-16T00:11:00;14.00;;;3.80;;
75044;SDS011;63614;56.026;35.960;2023-05-16T00:13:26;12.27;;;3.08;;
75044;SDS011;63614;56.026;35.960;2023-05-16T00:15:54;9.82;;;3.08;;
75044;SDS011;63614;56.026;35.960;2023-05-16T00:18:21;5.22;;;3.40;;
75044;SDS011;63614;56.026;35.960;2023-05-16T00:20:48;6.55;;;3.00;;
75044;SDS011;63614;56.026;35.960;2023-05-16T00:23:14;6.55;;;3.08;;
75044;SDS011;63614;56.026;35.960;2023-05-16T00:25:43;12.30;;;3.25;;
75044;SDS011;63614;56.026;35.960;2023-05-16T00:28:10;9.73;;;3.38;;
75044;SDS011;63614;56.026;35.960;2023-05-16T00:30:36;8.90;;;3.42;;
75044;SDS011;63614;56.026;35.960;2023-05-16T00:33:02;9.55;;;3.53;;
75044;SDS011;63614;56.026;35.960;2023-05-16T00:35:28;11.82;;;3.10;;
75044;SDS011;63614;56.026;35.960;2023-05-16T00:37:56;10.40;;;2.95;;
75044;SDS011;63614;56.026;35.960;2023-05-16T00:40:22;11.35;;;4.30;;
75044;SDS011;63614;56.026;35.960;2023-05-16T00:42:48;9.13;;;3.10;;
75044;SDS011;63614;56.026;35.960;2023-05-16T00:45:14;4.97;;;2.72;;
75044;SDS011;63614;56.026;35.960;2023-05-16T00:47:40;8.03;;;3.03;;
75044;SDS011;63614;56.026;35.960;2023-05-16T00:50:07;12.10;;;3.35;;
75044;SDS011;63614;56.026;35.960;2023-05-16T00:52:35;9.23;;;3.20;;
75044;SDS011;63614;56.026;35.960;2023-05-16T00:55:04;10.45;;;3.22;;
75044;SDS011;63614;56.026;35.960;2023-05-16T00:57:32;5.47;;;2.83;;
75044;SDS011;63614;56.026;35.960;2023-05-16T01:00:03;9.82;;;3.35;;
75044;SDS011;63614;56.026;35.960;2023-05-16T01:02:34;10.25;;;3.30;;
75044;SDS011;63614;56.026;35.960;2023-05-16T01:05:01;6.40;;;3.10;;
75044;SDS011;63614;56.026;35.960;2023-05-16T01:07:30;8.55;;;3.33;;
75044;SDS011;63614;56.026;35.960;2023-05-16T01:09:56;8.63;;;3.35;;
75044;SDS011;63614;56.026;35.960;2023-05-16T01:12:27;6.72;;;3.15;;
75044;SDS011;63614;56.026;35.960;2023-05-16T01:22:47;5.22;;;3.22;;
75044;SDS011;63614;56.026;35.960;2023-05-16T01:25:38;10.40;;;3.70;;
75044;SDS011;63614;56.026;35.960;2023-05-16T01:28:10;8.45;;;2.90;;
75044;SDS011;63614;56.026;35.960;2023-05-16T01:30:38;7.22;;;3.17;;
75044;SDS011;63614;56.026;35.960;2023-05-16T01:33:08;8.45;;;3.25;;
75044;SDS011;63614;56.026;35.960;2023-05-16T01:35:35;26.92;;;3.25;;
75044;SDS011;63614;56.026;35.960;2023-05-16T01:38:24;7.88;;;2.85;;
75044;SDS011;63614;56.026;35.960;2023-05-16T01:43:45;6.45;;;3.03;;
75044;SDS011;63614;56.026;35.960;2023-05-16T01:46:19;8.70;;;3.08;;
75044;SDS011;63614;56.026;35.960;2023-05-16T01:48:52;26.25;;;3.20;;
75044;SDS011;63614;56.026;35.960;2023-05-16T01:51:27;13.98;;;3.10;;
75044;SDS011;63614;56.026;35.960;2023-05-16T01:53:58;12.77;;;3.50;;
75044;SDS011;63614;56.026;35.960;2023-05-16T01:56:30;11.30;;;3.13;;
75044;SDS011;63614;56.026;35.960;2023-05-16T01:58:58;7.18;;;3.30;;
75044;SDS011;63614;56.026;35.960;2023-05-16T02:01:25;10.68;;;3.40;;
75044;SDS011;63614;56.026;35.960;2023-05-16T02:03:51;10.35;;;2.95;;
75044;SDS011;63614;56.026;35.960;2023-05-16T02:06:16;6.38;;;2.90;;
75044;SDS011;63614;56.026;35.960;2023-05-16T02:08:43;9.45;;;3.00;;
75044;SDS011;63614;56.026;35.960;2023-05-16T02:11:09;7.78;;;3.05;;
75044;SDS011;63614;56.026;35.960;2023-05-16T02:13:35;12.88;;;3.47;;
75044;SDS011;63614;56.026;35.960;2023-05-16T02:16:03;8.90;;;3.40;;
75044;SDS011;63614;56.026;35.960;2023-05-16T02:18:28;8.32;;;3.38;;
75044;SDS011;63614;56.026;35.960;2023-05-16T02:20:54;5.80;;;3.10;;
75044;SDS011;63614;56.026;35.960;2023-05-16T02:23:20;7.63;;;3.10;;
75044;SDS011;63614;56.026;35.960;2023-05-16T02:25:49;13.77;;;3.13;;
75044;SDS011;63614;56.026;35.960;2023-05-16T02:28:14;8.50;;;3.22;;
75044;SDS011;63614;56.026;35.960;2023-05-16T02:30:40;7.07;;;3.13;;
75044;SDS011;63614;56.026;35.960;2023-05-16T02:33:06;5.03;;;2.97;;
75044;SDS011;63614;56.026;35.960;2023-05-16T02:35:32;7.95;;;3.30;;
75044;SDS011;63614;56.026;35.960;2023-05-16T02:37:59;8.20;;;3.33;;
75044;SDS011;63614;56.026;35.960;2023-05-16T02:40:25;12.55;;;3.33;;
75044;SDS011;63614;56.026;35.960;2023-05-16T02:42:51;9.30;;;2.70;;
75044;SDS011;63614;56.026;35.960;2023-05-16T02:45:16;5.65;;;2.35;;
75044;SDS011;63614;56.026;35.960;2023-05-16T02:47:43;9.23;;;3.33;;
75044;SDS011;63614;56.026;35.960;2023-05-16T02:50:08;6.88;;;2.70;;
75044;SDS011;63614;56.026;35.960;2023-05-16T02:52:34;4.18;;;2.50;;
75044;SDS011;63614;56.026;35.960;2023-05-16T02:55:00;4.30;;;2.60;;
75044;SDS011;63614;56.026;35.960;2023-05-16T02:57:27;8.68;;;2.92;;
75044;SDS011;63614;56.026;35.960;2023-05-16T02:59:53;7.13;;;2.60;;
75044;SDS011;63614;56.026;35.960;2023-05-16T03:02:20;4.22;;;2.67;;
75044;SDS011;63614;56.026;35.960;2023-05-16T03:04:46;13.30;;;2.95;;
75044;SDS011;63614;56.026;35.960;2023-05-16T03:07:14;6.35;;;3.00;;
75044;SDS011;63614;56.026;35.960;2023-05-16T03:09:43;6.10;;;2.88;;
75044;SDS011;63614;56.026;35.960;2023-05-16T03:12:10;4.07;;;2.45;;
75044;SDS011;63614;56.026;35.960;2023-05-16T03:14:36;3.33;;;2.45;;
75044;SDS011;63614;56.026;35.960;2023-05-16T03:17:02;10.20;;;2.58;;
75044;SDS011;63614;56.026;35.960;2023-05-16T03:19:28;10.75;;;2.75;;
75044;SDS011;63614;56.026;35.960;2023-05-16T03:21:53;8.45;;;2.53;;
75044;SDS011;63614;56.026;35.960;2023-05-16T03:24:19;5.95;;;2.75;;
75044;SDS011;63614;56.026;35.960;2023-05-16T03:26:48;9.95;;;2.67;;
75044;SDS011;63614;56.026;35.960;2023-05-16T03:29:13;8.30;;;3.30;;
75044;SDS011;63614;56.026;35.960;2023-05-16T03:31:39;7.70;;;2.80;;
75044;SDS011;63614;56.026;35.960;2023-05-16T03:34:06;23.02;;;3.08;;
75044;SDS011;63614;56.026;35.960;2023-05-16T03:36:32;5.82;;;3.10;;
75044;SDS011;63614;56.026;35.960;2023-05-16T03:39:03;4.90;;;2.40;;
75044;SDS011;63614;56.026;35.960;2023-05-16T03:41:29;6.45;;;2.50;;
75044;SDS011;63614;56.026;35.960;2023-05-16T03:43:55;12.77;;;3.08;;
75044;SDS011;63614;56.026;35.960;2023-05-16T03:46:20;20.75;;;3.00;;
75044;SDS011;63614;56.026;35.960;2023-05-16T03:48:46;13.23;;;2.78;;
75044;SDS011;63614;56.026;35.960;2023-05-16T03:51:12;14.73;;;2.53;;
75044;SDS011;63614;56.026;35.960;2023-05-16T03:54:15;8.63;;;3.08;;
75044;SDS011;63614;56.026;35.960;2023-05-16T03:56:41;13.63;;;4.53;;
75044;SDS011;63614;56.026;35.960;2023-05-16T03:59:08;8.05;;;2.42;;
75044;SDS011;63614;56.026;35.960;2023-05-16T04:01:34;3.60;;;2.05;;
75044;SDS011;63614;56.026;35.960;2023-05-16T04:04:02;12.68;;;2.40;;
75044;SDS011;63614;56.026;35.960;2023-05-16T04:06:28;5.95;;;2.40;;
75044;SDS011;63614;56.026;35.960;2023-05-16T04:08:54;7.35;;;2.60;;
75044;SDS011;63614;56.026;35.960;2023-05-16T04:11:19;5.70;;;2.67;;
75044;SDS011;63614;56.026;35.960;2023-05-16T04:13:46;4.90;;;2.20;;
75044;SDS011;63614;56.026;35.960;2023-05-16T04:16:11;12.20;;;2.20;;
75044;SDS011;63614;56.026;35.960;2023-05-16T04:18:37;4.07;;;2.13;;
75044;SDS011;63614;56.026;35.960;2023-05-16T04:21:03;6.77;;;2.20;;
75044;SDS011;63614;56.026;35.960;2023-05-16T04:23:29;10.53;;;2.53;;
75044;SDS011;63614;56.026;35.960;2023-05-16T04:25:55;9.10;;;2.40;;
75044;SDS011;63614;56.026;35.960;2023-05-16T04:28:21;8.33;;;2.23;;
75044;SDS011;63614;56.026;35.960;2023-05-16T04:30:47;8.00;;;2.53;;
75044;SDS011;63614;56.026;35.960;2023-05-16T04:33:15;5.72;;;2.30;;
75044;SDS011;63614;56.026;35.960;2023-05-16T04:35:41;13.63;;;2.70;;
75044;SDS011;63614;56.026;35.960;2023-05-16T04:38:09;12.27;;;2.63;;
75044;SDS011;63614;56.026;35.960;2023-05-16T04:40:35;5.47;;;2.37;;
75044;SDS011;63614;56.026;35.960;2023-05-16T04:43:19;10.93;;;2.80;;
75044;SDS011;63614;56.026;35.960;2023-05-16T04:45:45;6.77;;;3.67;;
75044;SDS011;63614;56.026;35.960;2023-05-16T04:48:11;13.00;;;3.00;;
75044;SDS011;63614;56.026;35.960;2023-05-16T04:50:37;7.90;;;2.80;;
75044;SDS011;63614;56.026;35.960;2023-05-16T04:53:03;10.10;;;2.60;;
75044;SDS011;63614;56.026;35.960;2023-05-16T04:55:29;12.43;;;2.60;;
75044;SDS011;63614;56.026;35.960;2023-05-16T04:58:13;7.68;;;2.10;;
75044;SDS011;63614;56.026;35.960;2023-05-16T05:00:58;6.75;;;2.25;;
75044;SDS011;63614;56.026;35.960;2023-05-16T05:03:24;9.40;;;2.67;;
75044;SDS011;63614;56.026;35.960;2023-05-16T05:05:49;6.97;;;2.43;;
75044;SDS011;63614;56.026;35.960;2023-05-16T05:08:16;12.27;;;2.60;;
75044;SDS011;63614;56.026;35.960;2023-05-16T05:10:43;8.95;;;2.25;;
75044;SDS011;63614;56.026;35.960;2023-05-16T05:13:09;8.63;;;2.77;;
75044;SDS011;63614;56.026;35.960;2023-05-16T05:15:37;7.85;;;2.30;;
75044;SDS011;63614;56.026;35.960;2023-05-16T05:18:04;8.93;;;2.20;;
75044;SDS011;63614;56.026;35.960;2023-05-16T05:20:30;7.40;;;2.10;;
75044;SDS011;63614;56.026;35.960;2023-05-16T05:22:55;4.28;;;2.22;;
75044;SDS011;63614;56.026;35.960;2023-05-16T05:25:23;6.57;;;2.50;;
75044;SDS011;63614;56.026;35.960;2023-05-16T05:27:49;6.60;;;2.73;;
75044;SDS011;63614;56.026;35.960;2023-05-16T05:30:15;7.67;;;2.20;;
75044;SDS011;63614;56.026;35.960;2023-05-16T05:32:41;6.10;;;2.13;;
75044;SDS011;63614;56.026;35.960;2023-05-16T05:35:06;11.45;;;2.65;;
75044;SDS011;63614;56.026;35.960;2023-05-16T05:37:32;7.50;;;2.33;;
75044;SDS011;63614;56.026;35.960;2023-05-16T05:39:58;11.43;;;2.27;;
75044;SDS011;63614;56.026;35.960;2023-05-16T05:42:27;10.00;;;2.00;;
75044;SDS011;63614;56.026;35.960;2023-05-16T05:44:53;5.67;;;2.00;;
75044;SDS011;63614;56.026;35.960;2023-05-16T05:47:19;14.27;;;2.60;;
75044;SDS011;63614;56.026;35.960;2023-05-16T05:52:11;8.95;;;2.03;;
75044;SDS011;63614;56.026;35.960;2023-05-16T05:54:37;9.10;;;2.03;;
75044;SDS011;63614;56.026;35.960;2023-05-16T05:57:03;4.07;;;2.10;;
75044;SDS011;63614;56.026;35.960;2023-05-16T05:59:29;6.78;;;2.20;;
75044;SDS011;63614;56.026;35.960;2023-05-16T06:01:55;5.55;;;1.90;;
75044;SDS011;63614;56.026;35.960;2023-05-16T06:04:22;13.35;;;1.95;;
75044;SDS011;63614;56.026;35.960;2023-05-16T06:06:48;5.07;;;1.70;;
75044;SDS011;63614;56.026;35.960;2023-05-16T06:09:14;7.40;;;2.15;;
75044;SDS011;63614;56.026;35.960;2023-05-16T06:11:42;9.60;;;2.03;;
75044;SDS011;63614;56.026;35.960;2023-05-16T06:14:13;14.20;;;2.22;;
75044;SDS011;63614;56.026;35.960;2023-05-16T06:19:05;17.05;;;2.10;;
75044;SDS011;63614;56.026;35.960;2023-05-16T06:21:30;10.25;;;2.25;;
75044;SDS011;63614;56.026;35.960;2023-05-16T06:23:59;4.47;;;1.63;;
75044;SDS011;63614;56.026;35.960;2023-05-16T06:26:25;10.70;;;2.17;;
75044;SDS011;63614;56.026;35.960;2023-05-16T06:28:51;10.23;;;1.85;;
75044;SDS011;63614;56.026;35.960;2023-05-16T06:31:17;8.25;;;1.70;;
75044;SDS011;63614;56.026;35.960;2023-05-16T06:33:42;12.05;;;1.95;;
75044;SDS011;63614;56.026;35.960;2023-05-16T06:36:08;7.72;;;1.83;;
75044;SDS011;63614;56.026;35.960;2023-05-16T06:38:35;10.50;;;1.90;;
75044;SDS011;63614;56.026;35.960;2023-05-16T06:41:00;11.35;;;1.75;;
75044;SDS011;63614;56.026;35.960;2023-05-16T06:43:26;8.40;;;2.03;;
75044;SDS011;63614;56.026;35.960;2023-05-16T06:45:55;6.22;;;1.60;;
75044;SDS011;63614;56.026;35.960;2023-05-16T06:48:21;8.10;;;2.08;;
75044;SDS011;63614;56.026;35.960;2023-05-16T06:50:50;4.07;;;1.80;;
75044;SDS011;63614;56.026;35.960;2023-05-16T06:53:17;10.63;;;1.95;;
75044;SDS011;63614;56.026;35.960;2023-05-16T06:55:43;5.25;;;2.00;;
75044;SDS011;63614;56.026;35.960;2023-05-16T06:58:09;4.73;;;1.70;;
75044;SDS011;63614;56.026;35.960;2023-05-16T07:00:35;11.15;;;2.08;;
75044;SDS011;63614;56.026;35.960;2023-05-16T07:03:01;6.60;;;2.10;;
75044;SDS011;63614;56.026;35.960;2023-05-16T07:05:28;10.30;;;2.40;;
75044;SDS011;63614;56.026;35.960;2023-05-16T07:07:54;8.25;;;1.92;;
75044;SDS011;63614;56.026;35.960;2023-05-16T07:10:22;7.22;;;2.13;;
75044;SDS011;63614;56.026;35.960;2023-05-16T07:12:48;5.20;;;2.10;;
75044;SDS011;63614;56.026;35.960;2023-05-16T07:15:14;5.45;;;2.05;;
75044;SDS011;63614;56.026;35.960;2023-05-16T07:17:40;6.20;;;2.30;;
75044;SDS011;63614;56.026;35.960;2023-05-16T07:20:06;9.80;;;2.20;;
75044;SDS011;63614;56.026;35.960;2023-05-16T07:22:38;5.05;;;1.98;;
75044;SDS011;63614;56.026;35.960;2023-05-16T07:25:04;8.70;;;1.73;;
75044;SDS011;63614;56.026;35.960;2023-05-16T07:27:30;8.57;;;2.00;;
75044;SDS011;63614;56.026;35.960;2023-05-16T07:29:56;14.35;;;1.75;;
75044;SDS011;63614;56.026;35.960;2023-05-16T07:32:22;9.63;;;1.65;;
75044;SDS011;63614;56.026;35.960;2023-05-16T07:34:48;6.35;;;2.38;;
75044;SDS011;63614;56.026;35.960;2023-05-16T07:37:14;15.02;;;2.10;;
75044;SDS011;63614;56.026;35.960;2023-05-16T07:39:40;6.20;;;1.80;;
75044;SDS011;63614;56.026;35.960;2023-05-16T07:42:09;5.22;;;1.70;;
75044;SDS011;63614;56.026;35.960;2023-05-16T07:44:35;4.47;;;1.70;;
75044;SDS011;63614;56.026;35.960;2023-05-16T07:47:03;7.97;;;1.98;;
75044;SDS011;63614;56.026;35.960;2023-05-16T07:49:29;4.75;;;1.50;;
75044;SDS011;63614;56.026;35.960;2023-05-16T07:51:55;12.95;;;1.92;;
75044;SDS011;63614;56.026;35.960;2023-05-16T07:54:20;14.35;;;1.40;;
75044;SDS011;63614;56.026;35.960;2023-05-16T07:56:46;3.08;;;1.20;;
75044;SDS011;63614;56.026;35.960;2023-05-16T07:59:12;14.50;;;2.00;;
75044;SDS011;63614;56.026;35.960;2023-05-16T08:01:38;5.25;;;1.70;;
75044;SDS011;63614;56.026;35.960;2023-05-16T08:04:04;6.50;;;1.37;;
75044;SDS011;63614;56.026;35.960;2023-05-16T08:06:31;10.53;;;1.30;;
75044;SDS011;63614;56.026;35.960;2023-05-16T08:08:57;5.80;;;1.50;;
75044;SDS011;63614;56.026;35.960;2023-05-16T08:11:22;7.15;;;1.40;;
75044;SDS011;63614;56.026;35.960;2023-05-16T08:13:48;6.47;;;1.48;;
75044;SDS011;63614;56.026;35.960;2023-05-16T08:16:14;4.25;;;1.38;;
75044;SDS011;63614;56.026;35.960;2023-05-16T08:18:40;5.43;;;1.05;;
75044;SDS011;63614;56.026;35.960;2023-05-16T08:21:07;7.00;;;1.90;;
75044;SDS011;63614;56.026;35.960;2023-05-16T08:23:36;5.00;;;1.48;;
75044;SDS011;63614;56.026;35.960;2023-05-16T08:26:01;3.42;;;1.40;;
75044;SDS011;63614;56.026;35.960;2023-05-16T08:28:28;5.85;;;1.25;;
75044;SDS011;63614;56.026;35.960;2023-05-16T08:30:54;4.72;;;1.42;;
75044;SDS011;63614;56.026;35.960;2023-05-16T08:33:23;8.02;;;1.70;;
75044;SDS011;63614;56.026;35.960;2023-05-16T08:35:49;8.65;;;1.63;;
75044;SDS011;63614;56.026;35.960;2023-05-16T08:38:18;5.82;;;1.52;;
75044;SDS011;63614;56.026;35.960;2023-05-16T08:43:10;9.77;;;1.67;;
75044;SDS011;63614;56.026;35.960;2023-05-16T08:45:37;6.63;;;1.50;;
75044;SDS011;63614;56.026;35.960;2023-05-16T08:48:05;5.75;;;1.60;;
75044;SDS011;63614;56.026;35.960;2023-05-16T08:50:32;8.55;;;1.70;;
75044;SDS011;63614;56.026;35.960;2023-05-16T08:53:01;4.63;;;1.50;;
75044;SDS011;63614;56.026;35.960;2023-05-16T08:55:31;22.08;;;2.22;;
75044;SDS011;63614;56.026;35.960;2023-05-16T08:57:59;11.32;;;2.10;;
75044;SDS011;63614;56.026;35.960;2023-05-16T09:00:25;13.88;;;2.33;;
75044;SDS011;63614;56.026;35.960;2023-05-16T09:02:52;5.60;;;1.70;;
75044;SDS011;63614;56.026;35.960;2023-05-16T09:05:20;14.50;;;1.70;;
75044;SDS011;63614;56.026;35.960;2023-05-16T09:07:47;12.20;;;1.35;;
75044;SDS011;63614;56.026;35.960;2023-05-16T09:10:12;8.90;;;1.30;;
75044;SDS011;63614;56.026;35.960;2023-05-16T09:12:39;9.63;;;1.30;;
75044;SDS011;63614;56.026;35.960;2023-05-16T09:15:06;3.10;;;1.38;;
75044;SDS011;63614;56.026;35.960;2023-05-16T09:17:34;4.57;;;1.38;;
75044;SDS011;63614;56.026;35.960;2023-05-16T09:20:13;4.32;;;0.90;;
75044;SDS011;63614;56.026;35.960;2023-05-16T09:25:16;8.65;;;1.27;;
75044;SDS011;63614;56.026;35.960;2023-05-16T09:27:44;4.10;;;1.20;;
75044;SDS011;63614;56.026;35.960;2023-05-16T09:30:12;2.65;;;1.17;;
75044;SDS011;63614;56.026;35.960;2023-05-16T09:32:42;2.03;;;1.05;;
75044;SDS011;63614;56.026;35.960;2023-05-16T09:35:09;6.93;;;1.35;;
75044;SDS011;63614;56.026;35.960;2023-05-16T09:37:46;6.95;;;1.08;;
75044;SDS011;63614;56.026;35.960;2023-05-16T09:40:13;3.55;;;1.20;;
75044;SDS011;63614;56.026;35.960;2023-05-16T09:43:04;10.93;;;1.40;;
75044;SDS011;63614;56.026;35.960;2023-05-16T09:48:19;4.97;;;1.60;;
75044;SDS011;63614;56.026;35.960;2023-05-16T09:50:47;3.88;;;1.40;;
75044;SDS011;63614;56.026;35.960;2023-05-16T09:53:25;3.28;;;1.30;;
75044;SDS011;63614;56.026;35.960;2023-05-16T09:56:10;10.70;;;1.60;;
75044;SDS011;63614;56.026;35.960;2023-05-16T09:58:38;2.25;;;1.15;;
75044;SDS011;63614;56.026;35.960;2023-05-16T10:01:05;8.45;;;1.30;;
75044;SDS011;63614;56.026;35.960;2023-05-16T10:03:50;8.35;;;1.10;;
75044;SDS011;63614;56.026;35.960;2023-05-16T10:06:18;8.00;;;1.35;;
75044;SDS011;63614;56.026;35.960;2023-05-16T10:08:44;3.67;;;0.93;;
75044;SDS011;63614;56.026;35.960;2023-05-16T10:11:11;6.28;;;1.40;;
75044;SDS011;63614;56.026;35.960;2023-05-16T10:13:38;11.90;;;1.38;;
75044;SDS011;63614;56.026;35.960;2023-05-16T10:16:11;2.53;;;1.23;;
75044;SDS011;63614;56.026;35.960;2023-05-16T10:18:55;5.90;;;2.10;;
75044;SDS011;63614;56.026;35.960;2023-05-16T10:21:23;3.83;;;1.30;;
75044;SDS011;63614;56.026;35.960;2023-05-16T10:23:52;4.07;;;1.10;;
75044;SDS011;63614;56.026;35.960;2023-05-16T10:26:21;3.85;;;1.17;;
75044;SDS011;63614;56.026;35.960;2023-05-16T10:28:48;3.63;;;1.10;;
75044;SDS011;63614;56.026;35.960;2023-05-16T10:33:41;5.68;;;1.17;;
75044;SDS011;63614;56.026;35.960;2023-05-16T10:36:09;3.58;;;1.20;;
75044;SDS011;63614;56.026;35.960;2023-05-16T10:38:36;4.13;;;1.30;;
75044;SDS011;63614;56.026;35.960;2023-05-16T10:41:04;10.95;;;1.25;;
75044;SDS011;63614;56.026;35.960;2023-05-16T10:43:31;8.15;;;1.27;;
75044;SDS011;63614;56.026;35.960;2023-05-16T10:46:05;12.20;;;1.40;;
75044;SDS011;63614;56.026;35.960;2023-05-16T10:48:52;6.90;;;1.17;;
75044;SDS011;63614;56.026;35.960;2023-05-16T10:53:50;4.40;;;1.10;;
75044;SDS011;63614;56.026;35.960;2023-05-16T10:56:54;5.07;;;1.30;;
75044;SDS011;63614;56.026;35.960;2023-05-16T10:59:24;6.82;;;1.50;;
75044;SDS011;63614;56.026;35.960;2023-05-16T11:01:51;4.75;;;1.42;;
75044;SDS011;63614;56.026;35.960;2023-05-16T11:07:21;3.85;;;1.13;;
75044;SDS011;63614;56.026;35.960;2023-05-16T11:09:52;7.85;;;1.40;;
75044;SDS011;63614;56.026;35.960;2023-05-16T11:12:36;3.08;;;1.10;;
75044;SDS011;63614;56.026;35.960;2023-05-16T11:15:30;6.65;;;1.13;;
75044;SDS011;63614;56.026;35.960;2023-05-16T11:18:03;7.80;;;1.40;;
75044;SDS011;63614;56.026;35.960;2023-05-16T11:20:32;4.22;;;1.20;;
75044;SDS011;63614;56.026;35.960;2023-05-16T11:28:28;7.28;;;1.35;;
75044;SDS011;63614;56.026;35.960;2023-05-16T11:30:56;6.93;;;1.20;;
75044;SDS011;63614;56.026;35.960;2023-05-16T11:33:24;8.13;;;1.38;;
75044;SDS011;63614;56.026;35.960;2023-05-16T11:35:59;3.70;;;1.10;;
75044;SDS011;63614;56.026;35.960;2023-05-16T11:38:32;6.53;;;1.30;;
75044;SDS011;63614;56.026;35.960;2023-05-16T11:41:05;8.63;;;1.20;;
75044;SDS011;63614;56.026;35.960;2023-05-16T11:43:36;5.80;;;1.25;;
75044;SDS011;63614;56.026;35.960;2023-05-16T11:48:48;3.35;;;1.25;;
75044;SDS011;63614;56.026;35.960;2023-05-16T11:51:16;4.88;;;1.30;;
75044;SDS011;63614;56.026;35.960;2023-05-16T11:53:48;6.38;;;1.10;;
75044;SDS011;63614;56.026;35.960;2023-05-16T11:56:14;3.75;;;1.23;;
75044;SDS011;63614;56.026;35.960;2023-05-16T11:58:41;2.95;;;1.10;;
75044;SDS011;63614;56.026;35.960;2023-05-16T12:01:07;6.03;;;1.23;;
75044;SDS011;63614;56.026;35.960;2023-05-16T12:03:34;5.43;;;1.35;;
75044;SDS011;63614;56.026;35.960;2023-05-16T12:06:01;4.50;;;1.00;;
75044;SDS011;63614;56.026;35.960;2023-05-16T12:08:27;4.35;;;1.13;;
75044;SDS011;63614;56.026;35.960;2023-05-16T12:10:53;3.47;;;1.50;;
75044;SDS011;63614;56.026;35.960;2023-05-16T12:13:19;8.88;;;1.40;;
75044;SDS011;63614;56.026;35.960;2023-05-16T12:18:32;2.17;;;1.10;;
75044;SDS011;63614;56.026;35.960;2023-05-16T12:20:58;4.63;;;1.48;;
75044;SDS011;63614;56.026;35.960;2023-05-16T12:23:23;12.35;;;1.02;;
75044;SDS011;63614;56.026;35.960;2023-05-16T12:25:51;10.23;;;1.25;;
75044;SDS011;63614;56.026;35.960;2023-05-16T12:28:19;6.22;;;1.20;;
75044;SDS011;63614;56.026;35.960;2023-05-16T12:30:45;3.60;;;1.20;;
75044;SDS011;63614;56.026;35.960;2023-05-16T12:33:13;6.45;;;1.23;;
75044;SDS011;63614;56.026;35.960;2023-05-16T12:35:40;5.03;;;1.10;;
75044;SDS011;63614;56.026;35.960;2023-05-16T12:38:12;9.05;;;1.30;;
75044;SDS011;63614;56.026;35.960;2023-05-16T12:40:40;3.70;;;1.05;;
75044;SDS011;63614;56.026;35.960;2023-05-16T12:45:54;5.53;;;1.47;;
75044;SDS011;63614;56.026;35.960;2023-05-16T12:50:48;7.38;;;1.20;;
75044;SDS011;63614;56.026;35.960;2023-05-16T12:53:14;7.70;;;1.38;;
75044;SDS011;63614;56.026;35.960;2023-05-16T12:55:42;4.35;;;1.10;;
75044;SDS011;63614;56.026;35.960;2023-05-16T12:58:09;3.05;;;1.10;;
75044;SDS011;63614;56.026;35.960;2023-05-16T13:00:36;13.50;;;1.30;;
75044;SDS011;63614;56.026;35.960;2023-05-16T13:03:02;4.32;;;1.52;;
75044;SDS011;63614;56.026;35.960;2023-05-16T13:05:30;11.55;;;1.42;;
75044;SDS011;63614;56.026;35.960;2023-05-16T13:07:56;6.20;;;1.17;;
75044;SDS011;63614;56.026;35.960;2023-05-16T13:10:22;4.70;;;1.20;;
75044;SDS011;63614;56.026;35.960;2023-05-16T13:12:50;8.95;;;1.33;;
75044;SDS011;63614;56.026;35.960;2023-05-16T13:15:15;6.15;;;1.13;;
75044;SDS011;63614;56.026;35.960;2023-05-16T13:17:41;6.70;;;1.35;;
75044;SDS011;63614;56.026;35.960;2023-05-16T13:20:13;4.57;;;1.20;;
75044;SDS011;63614;56.026;35.960;2023-05-16T13:22:39;6.90;;;1.50;;
75044;SDS011;63614;56.026;35.960;2023-05-16T13:25:06;7.25;;;1.40;;
75044;SDS011;63614;56.026;35.960;2023-05-16T13:29:59;14.27;;;1.23;;
75044;SDS011;63614;56.026;35.960;2023-05-16T13:32:25;5.65;;;0.93;;
75044;SDS011;63614;56.026;35.960;2023-05-16T13:34:51;11.10;;;1.40;;
75044;SDS011;63614;56.026;35.960;2023-05-16T13:37:17;8.32;;;1.08;;
75044;SDS011;63614;56.026;35.960;2023-05-16T13:39:43;5.88;;;0.93;;
75044;SDS011;63614;56.026;35.960;2023-05-16T13:42:10;2.83;;;1.10;;
75044;SDS011;63614;56.026;35.960;2023-05-16T13:44:36;16.53;;;1.83;;
75044;SDS011;63614;56.026;35.960;2023-05-16T13:47:03;5.75;;;1.00;;
75044;SDS011;63614;56.026;35.960;2023-05-16T13:49:29;3.90;;;2.05;;
75044;SDS011;63614;56.026;35.960;2023-05-16T13:51:55;3.28;;;1.05;;
75044;SDS011;63614;56.026;35.960;2023-05-16T13:54:22;3.72;;;1.17;;
75044;SDS011;63614;56.026;35.960;2023-05-16T13:56:48;6.82;;;1.20;;
75044;SDS011;63614;56.026;35.960;2023-05-16T13:59:14;5.53;;;1.10;;
75044;SDS011;63614;56.026;35.960;2023-05-16T14:01:39;4.65;;;1.08;;
75044;SDS011;63614;56.026;35.960;2023-05-16T14:04:06;9.00;;;1.33;;
75044;SDS011;63614;56.026;35.960;2023-05-16T14:06:32;7.78;;;2.45;;
75044;SDS011;63614;56.026;35.960;2023-05-16T14:08:58;12.13;;;1.70;;
75044;SDS011;63614;56.026;35.960;2023-05-16T14:11:24;7.97;;;1.30;;
75044;SDS011;63614;56.026;35.960;2023-05-16T14:13:55;7.18;;;1.30;;
75044;SDS011;63614;56.026;35.960;2023-05-16T14:16:21;5.85;;;1.20;;
75044;SDS011;63614;56.026;35.960;2023-05-16T14:18:47;10.57;;;1.40;;
75044;SDS011;63614;56.026;35.960;2023-05-16T14:21:13;16.42;;;1.50;;
75044;SDS011;63614;56.026;35.960;2023-05-16T14:23:39;6.43;;;1.30;;
75044;SDS011;63614;56.026;35.960;2023-05-16T14:26:05;3.25;;;1.23;;
75044;SDS011;63614;56.026;35.960;2023-05-16T14:28:30;5.18;;;1.30;;
75044;SDS011;63614;56.026;35.960;2023-05-16T14:30:57;9.10;;;1.50;;
75044;SDS011;63614;56.026;35.960;2023-05-16T14:33:24;7.93;;;1.48;;
75044;SDS011;63614;56.026;35.960;2023-05-16T14:35:50;11.07;;;1.20;;
75044;SDS011;63614;56.026;35.960;2023-05-16T14:40:43;8.85;;;1.25;;
75044;SDS011;63614;56.026;35.960;2023-05-16T14:43:09;16.20;;;1.48;;
75044;SDS011;63614;56.026;35.960;2023-05-16T14:45:36;7.43;;;1.00;;
75044;SDS011;63614;56.026;35.960;2023-05-16T14:48:04;3.40;;;1.05;;
75044;SDS011;63614;56.026;35.960;2023-05-16T14:50:30;3.63;;;1.00;;
75044;SDS011;63614;56.026;35.960;2023-05-16T14:52:56;14.32;;;1.15;;
75044;SDS011;63614;56.026;35.960;2023-05-16T14:55:22;12.38;;;1.30;;
75044;SDS011;63614;56.026;35.960;2023-05-16T14:57:48;9.05;;;1.30;;
75044;SDS011;63614;56.026;35.960;2023-05-16T15:00:14;7.10;;;1.65;;
75044;SDS011;63614;56.026;35.960;2023-05-16T15:02:43;7.63;;;1.13;;
75044;SDS011;63614;56.026;35.960;2023-05-16T15:05:09;5.18;;;1.00;;
75044;SDS011;63614;56.026;35.960;2023-05-16T15:07:35;5.47;;;1.02;;
75044;SDS011;63614;56.026;35.960;2023-05-16T15:10:01;10.85;;;1.40;;
75044;SDS011;63614;56.026;35.960;2023-05-16T15:12:29;5.90;;;1.00;;
75044;SDS011;63614;56.026;35.960;2023-05-16T15:14:55;4.90;;;1.00;;
75044;SDS011;63614;56.026;35.960;2023-05-16T15:17:21;4.20;;;1.30;;
75044;SDS011;63614;56.026;35.960;2023-05-16T15:19:47;9.32;;;1.13;;
75044;SDS011;63614;56.026;35.960;2023-05-16T15:22:13;6.70;;;1.40;;
75044;SDS011;63614;56.026;35.960;2023-05-16T15:24:39;12.77;;;1.23;;
75044;SDS011;63614;56.026;35.960;2023-05-16T15:27:05;3.67;;;1.10;;
75044;SDS011;63614;56.026;35.960;2023-05-16T15:29:31;9.80;;;1.35;;